Time,TemperatureF,DewpointF,PressureIn,WindDirection,WindDirectionDegrees,WindSpeedMPH,WindSpeedGustMPH,Humidity,HourlyPrecipIn,Conditions,Clouds,dailyrainin,SoftwareType,DateUTC
2013-09-06 00:01:00,40.3,37.6,30.21,East,90,1.2,0.0,90,0.00,CLR,,0.00,WeatherDisplay:10.37,2013-09-06 04:01:00,
2013-09-06 00:02:00,40.3,37.6,30.22,East,90,1.2,0.0,90,0.00,CLR,,0.00,WeatherDisplay:10.37,2013-09-06 04:02:00,
2013-09-06 00:03:00,40.3,37.6,30.22,East,90,0.0,0.0,90,0.00,CLR,,0.00,WeatherDisplay:10.37,2013-09-06 04:03:00,
2013-09-06 00:04:00,40.3,37.6,30.22,East,90,0.0,0.0,90,0.00,CLR,,0.00,WeatherDisplay:10.37,2013-09-06 04:04:00,
2013-09-06 00:09:00,40.0,37.3,30.22,East,90,0.0,0.0,90,0.00,CLR,,0.00,WeatherDisplay:10.37,2013-09-06 04:09:00,
2013-09-06 00:14:00,39.8,37.1,30.21,East,90,0.0,0.0,90,0.00,CLR,,0.00,WeatherDisplay:10.37,2013-09-06 04:14:00,
2013-09-06 00:19:00,39.6,36.9,30.22,East,90,0.0,0.0,90,0.00,CLR,,0.00,WeatherDisplay:10.37,2013-09-06 04:19:00,
2013-09-06 00:24:00,39.3,36.9,30.22,East,90,1.2,0.0,91,0.00,CLR,,0.00,WeatherDisplay:10.37,2013-09-06 04:24:00,
2013-09-06 00:29:00,39.1,36.7,30.22,East,91,1.2,1.2,91,0.00,CLR,,0.00,WeatherDisplay:10.37,2013-09-06 04:29:00,
2013-09-06 00:34:00,38.9,36.5,30.22,East,91,0.0,0.0,91,0.00,CLR,,0.00,WeatherDisplay:10.37,2013-09-06 04:34:00,
2013-09-06 00:39:00,38.8,36.4,30.22,East,91,0.0,0.0,91,0.00,CLR,,0.00,WeatherDisplay:10.37,2013-09-06 04:39:00,
2013-09-06 00:44:00,38.7,36.3,30.23,East,91,0.0,0.0,91,0.00,CLR,,0.00,WeatherDisplay:10.37,2013-09-06 04:44:00,
2013-09-06 00:49:00,38.5,36.1,30.22,East,91,0.0,0.0,91,0.00,CLR,,0.00,WeatherDisplay:10.37,2013-09-06 04:49:00,
2013-09-06 00:54:00,38.3,35.9,30.23,East,91,0.0,0.0,91,0.00,CLR,,0.00,WeatherDisplay:10.37,2013-09-06 04:54:00,
2013-09-06 00:59:00,37.9,35.5,30.22,East,91,0.0,0.0,91,0.00,CLR,,0.00,WeatherDisplay:10.37,2013-09-06 04:59:00,
2013-09-06 01:04:00,37.9,35.5,30.22,East,91,1.2,1.2,91,0.00,CLR,,0.00,WeatherDisplay:10.37,2013-09-06 05:04:00,
2013-09-06 01:09:00,37.8,35.4,30.22,East,91,1.2,0.0,91,0.00,CLR,,0.00,WeatherDisplay:10.37,2013-09-06 05:09:00,
2013-09-06 01:14:00,37.7,35.3,30.23,East,91,0.0,0.0,91,0.00,CLR,,0.00,WeatherDisplay:10.37,2013-09-06 05:14:00,
2013-09-06 01:19:00,37.7,35.3,30.23,East,91,2.3,2.3,91,0.00,CLR,,0.00,WeatherDisplay:10.37,2013-09-06 05:19:00,
2013-09-06 01:24:00,37.5,35.1,30.23,East,92,0.0,0.0,91,0.00,CLR,,0.00,WeatherDisplay:10.37,2013-09-06 05:24:00,
2013-09-06 01:29:00,37.4,35.3,30.23,East,92,0.0,0.0,92,0.00,CLR,,0.00,WeatherDisplay:10.37,2013-09-06 05:29:00,
2013-09-06 01:34:00,37.2,34.8,30.24,East,92,0.0,0.0,91,0.00,CLR,,0.00,WeatherDisplay:10.37,2013-09-06 05:34:00,
2013-09-06 01:39:00,37.1,35.0,30.24,East,92,0.0,0.0,92,0.00,CLR,,0.00,WeatherDisplay:10.37,2013-09-06 05:39:00,
2013-09-06 01:44:00,37.0,34.9,30.23,East,92,0.0,0.0,92,0.00,CLR,,0.00,WeatherDisplay:10.37,2013-09-06 05:44:00,
2013-09-06 01:49:00,37.0,34.9,30.23,East,92,0.0,0.0,92,0.00,CLR,,0.00,WeatherDisplay:10.37,2013-09-06 05:49:00,
2013-09-06 01:54:00,36.9,34.8,30.24,East,92,0.0,0.0,92,0.00,CLR,,0.00,WeatherDisplay:10.37,2013-09-06 05:54:00,
2013-09-06 01:59:00,36.8,34.7,30.24,East,92,0.0,0.0,92,0.00,CLR,,0.00,WeatherDisplay:10.37,2013-09-06 05:59:00,
2013-09-06 02:04:00,36.7,34.6,30.24,East,91,0.0,0.0,92,0.00,CLR,,0.00,WeatherDisplay:10.37,2013-09-06 06:04:00,
2013-09-06 02:09:00,36.6,34.5,30.24,East,91,0.0,0.0,92,0.00,CLR,,0.00,WeatherDisplay:10.37,2013-09-06 06:09:00,
2013-09-06 02:14:00,36.7,34.6,30.24,East,92,0.0,0.0,92,0.00,CLR,,0.00,WeatherDisplay:10.37,2013-09-06 06:14:00,
2013-09-06 02:19:00,36.9,34.8,30.24,East,91,1.2,1.2,92,0.00,CLR,,0.00,WeatherDisplay:10.37,2013-09-06 06:19:00,
2013-09-06 02:24:00,37.0,34.9,30.24,East,92,0.0,0.0,92,0.00,CLR,,0.00,WeatherDisplay:10.37,2013-09-06 06:24:00,
2013-09-06 02:29:00,37.1,35.0,30.25,East,92,0.0,0.0,92,0.00,CLR,,0.00,WeatherDisplay:10.37,2013-09-06 06:29:00,
2013-09-06 02:34:00,37.3,35.5,30.24,East,92,2.0,2.0,93,0.00,CLR,,0.00,WeatherDisplay:10.37,2013-09-06 06:34:00,
2013-09-06 02:39:00,37.5,35.7,30.24,East,91,1.0,0.0,93,0.00,CLR,,0.00,WeatherDisplay:10.37,2013-09-06 06:39:00,
2013-09-06 02:44:00,37.7,35.6,30.25,ESE,103,2.3,2.3,92,0.00,CLR,,0.00,WeatherDisplay:10.37,2013-09-06 06:44:00,
2013-09-06 02:49:00,37.8,35.7,30.25,ESE,103,2.3,2.3,92,0.00,CLR,,0.00,WeatherDisplay:10.37,2013-09-06 06:49:00,
2013-09-06 02:54:00,37.7,35.6,30.25,ESE,103,0.0,0.0,92,0.00,CLR,,0.00,WeatherDisplay:10.37,2013-09-06 06:54:00,
2013-09-06 02:59:00,37.8,35.7,30.25,ESE,103,0.0,0.0,92,0.00,CLR,,0.00,WeatherDisplay:10.37,2013-09-06 06:59:00,
2013-09-06 03:04:00,38.0,36.2,30.25,ESE,103,1.2,0.0,93,0.00,CLR,,0.00,WeatherDisplay:10.37,2013-09-06 07:04:00,
2013-09-06 03:09:00,38.1,36.3,30.25,ESE,103,2.3,0.0,93,0.00,CLR,,0.00,WeatherDisplay:10.37,2013-09-06 07:09:00,
2013-09-06 03:14:00,38.2,36.4,30.25,ESE,103,1.2,1.2,93,0.00,CLR,,0.00,WeatherDisplay:10.37,2013-09-06 07:14:00,
2013-09-06 03:19:00,38.3,36.5,30.25,ESE,104,0.0,0.0,93,0.00,CLR,,0.00,WeatherDisplay:10.37,2013-09-06 07:19:00,
2013-09-06 03:24:00,38.7,36.9,30.25,ESE,103,0.0,0.0,93,0.00,CLR,,0.00,WeatherDisplay:10.37,2013-09-06 07:24:00,
2013-09-06 03:29:00,38.9,37.0,30.25,ESE,104,0.0,0.0,93,0.00,CLR,,0.00,WeatherDisplay:10.37,2013-09-06 07:29:00,
2013-09-06 03:34:00,38.9,37.0,30.25,ESE,104,0.0,0.0,93,0.00,CLR,,0.00,WeatherDisplay:10.37,2013-09-06 07:34:00,
2013-09-06 03:39:00,39.1,37.2,30.25,ESE,104,0.0,0.0,93,0.00,CLR,,0.00,WeatherDisplay:10.37,2013-09-06 07:39:00,
2013-09-06 03:44:00,39.2,37.3,30.26,ESE,104,0.0,0.0,93,0.00,CLR,,0.00,WeatherDisplay:10.37,2013-09-06 07:44:00,
2013-09-06 03:49:00,39.4,37.5,30.26,ESE,103,1.0,0.0,93,0.00,CLR,,0.00,WeatherDisplay:10.37,2013-09-06 07:49:00,
2013-09-06 03:54:00,39.5,37.6,30.26,ESE,104,0.0,0.0,93,0.00,CLR,,0.00,WeatherDisplay:10.37,2013-09-06 07:54:00,
2013-09-06 03:59:00,39.3,37.4,30.25,ESE,104,1.2,0.0,93,0.00,CLR,,0.00,WeatherDisplay:10.37,2013-09-06 07:59:00,
2013-09-06 04:04:00,39.3,37.4,30.26,ESE,104,1.2,0.0,93,0.00,CLR,,0.00,WeatherDisplay:10.37,2013-09-06 08:04:00,
2013-09-06 04:09:00,39.3,37.4,30.25,ESE,107,1.2,1.2,93,0.00,CLR,,0.00,WeatherDisplay:10.37,2013-09-06 08:09:00,
2013-09-06 04:14:00,39.2,37.3,30.25,SE,135,1.2,0.0,93,0.00,CLR,,0.00,WeatherDisplay:10.37,2013-09-06 08:14:00,
2013-09-06 04:19:00,39.3,37.4,30.25,SE,135,1.2,1.2,93,0.00,CLR,,0.00,WeatherDisplay:10.37,2013-09-06 08:19:00,
2013-09-06 04:25:00,39.4,37.8,30.25,SE,136,0.0,3.0,94,0.00,CLR,,0.00,WeatherDisplay:10.37,2013-09-06 08:25:00,
2013-09-06 04:30:00,39.3,37.7,30.26,SE,146,0.0,2.0,94,0.00,CLR,,0.00,WeatherDisplay:10.37,2013-09-06 08:30:00,
2013-09-06 04:35:00,39.0,37.4,30.26,SSE,153,0.0,0.0,94,0.00,CLR,,0.00,WeatherDisplay:10.37,2013-09-06 08:35:00,
2013-09-06 04:40:00,39.0,37.1,30.26,SSE,154,0.0,1.0,93,0.00,CLR,,0.00,WeatherDisplay:10.37,2013-09-06 08:40:00,
2013-09-06 04:45:00,39.3,37.7,30.26,SSE,154,0.0,1.0,94,0.00,CLR,,0.00,WeatherDisplay:10.37,2013-09-06 08:45:00,
2013-09-06 04:50:00,39.4,37.8,30.26,SSE,154,0.0,1.0,94,0.00,CLR,,0.00,WeatherDisplay:10.37,2013-09-06 08:50:00,
2013-09-06 04:55:00,39.4,37.8,30.26,SSE,154,0.0,1.0,94,0.00,CLR,,0.00,WeatherDisplay:10.37,2013-09-06 08:55:00,
2013-09-06 05:00:00,39.4,37.8,30.26,SSE,154,0.0,2.0,94,0.00,CLR,,0.00,WeatherDisplay:10.37,2013-09-06 09:00:00,
2013-09-06 05:05:00,39.4,37.8,30.26,SSE,154,0.0,1.0,94,0.00,CLR,,0.00,WeatherDisplay:10.37,2013-09-06 09:05:00,
2013-09-06 05:09:00,39.7,38.1,30.27,SSE,154,1.2,0.0,94,0.00,CLR,,0.00,WeatherDisplay:10.37,2013-09-06 09:09:00,
2013-09-06 05:14:00,39.7,38.1,30.27,SSE,153,1.2,1.2,94,0.00,CLR,,0.00,WeatherDisplay:10.37,2013-09-06 09:14:00,
2013-09-06 05:20:00,39.2,37.6,30.27,SSE,154,0.0,0.0,94,0.00,CLR,,0.00,WeatherDisplay:10.37,2013-09-06 09:20:00,
2013-09-06 05:25:00,39.2,37.6,30.27,SSE,154,0.0,1.0,94,0.00,CLR,,0.00,WeatherDisplay:10.37,2013-09-06 09:25:00,
2013-09-06 05:30:00,39.2,37.6,30.27,SSE,153,0.0,1.0,94,0.00,CLR,,0.00,WeatherDisplay:10.37,2013-09-06 09:30:00,
2013-09-06 05:35:00,39.3,37.7,30.27,SSE,154,0.0,0.0,94,0.00,CLR,,0.00,WeatherDisplay:10.37,2013-09-06 09:35:00,
2013-09-06 05:40:00,39.3,37.7,30.27,SSE,154,0.0,1.0,94,0.00,CLR,,0.00,WeatherDisplay:10.37,2013-09-06 09:40:00,
2013-09-06 05:45:00,39.2,37.6,30.27,SSE,154,0.0,1.0,94,0.00,CLR,,0.00,WeatherDisplay:10.37,2013-09-06 09:45:00,
2013-09-06 05:50:00,39.0,37.4,30.28,SSE,154,0.0,1.0,94,0.00,CLR,,0.00,WeatherDisplay:10.37,2013-09-06 09:50:00,
2013-09-06 05:55:00,39.0,37.4,30.28,SSE,154,0.0,0.0,94,0.00,CLR,,0.00,WeatherDisplay:10.37,2013-09-06 09:55:00,
2013-09-06 06:00:00,38.9,37.3,30.28,SSE,154,0.0,0.0,94,0.00,CLR,,0.00,WeatherDisplay:10.37,2013-09-06 10:00:00,
2013-09-06 06:05:00,38.9,37.4,30.28,SSE,154,0.0,1.0,94,0.00,CLR,,0.00,WeatherDisplay:10.37,2013-09-06 10:05:00,
2013-09-06 06:09:00,39.0,37.4,30.29,SSE,153,1.2,1.2,94,0.00,CLR,,0.00,WeatherDisplay:10.37,2013-09-06 10:09:00,
2013-09-06 06:15:00,38.8,37.2,30.29,SSE,154,0.0,1.0,94,0.00,CLR,,0.00,WeatherDisplay:10.37,2013-09-06 10:15:00,
2013-09-06 06:20:00,38.6,37.0,30.29,SSE,153,2.3,2.3,94,0.00,CLR,,0.00,WeatherDisplay:10.37,2013-09-06 10:20:00,
2013-09-06 06:25:00,38.4,36.8,30.29,SSE,153,1.0,2.0,94,0.00,CLR,,0.00,WeatherDisplay:10.37,2013-09-06 10:25:00,
2013-09-06 06:30:00,38.2,36.6,30.30,SSE,149,0.0,2.0,94,0.00,CLR,,0.00,WeatherDisplay:10.37,2013-09-06 10:30:00,
2013-09-06 06:35:00,38.0,36.4,30.30,SE,143,0.0,1.0,94,0.00,CLR,,0.00,WeatherDisplay:10.37,2013-09-06 10:35:00,
2013-09-06 06:40:00,37.8,36.2,30.30,SE,143,0.0,1.0,94,0.00,CLR,,0.00,WeatherDisplay:10.37,2013-09-06 10:40:00,
2013-09-06 06:45:00,37.9,36.3,30.30,SE,143,0.0,0.0,94,0.00,CLR,,0.00,WeatherDisplay:10.37,2013-09-06 10:45:00,
2013-09-06 06:50:00,37.9,36.3,30.30,SE,143,0.0,1.0,94,0.00,CLR,,0.00,WeatherDisplay:10.37,2013-09-06 10:50:00,
2013-09-06 06:55:00,37.9,36.3,30.30,SE,143,0.0,1.0,94,0.00,CLR,,0.00,WeatherDisplay:10.37,2013-09-06 10:55:00,
2013-09-06 06:59:00,38.0,36.4,30.30,SE,142,1.2,1.2,94,0.00,CLR,,0.00,WeatherDisplay:10.37,2013-09-06 10:59:00,
2013-09-06 07:04:00,37.9,36.3,30.30,SE,143,1.2,1.2,94,0.00,CLR,,0.00,WeatherDisplay:10.37,2013-09-06 11:04:00,
2013-09-06 07:10:00,37.9,36.3,30.30,SE,143,1.2,0.0,94,0.00,CLR,,0.00,WeatherDisplay:10.37,2013-09-06 11:10:00,
2013-09-06 07:15:00,37.8,36.2,30.30,SE,143,0.0,1.0,94,0.00,CLR,,0.00,WeatherDisplay:10.37,2013-09-06 11:15:00,
2013-09-06 07:20:00,37.8,36.2,30.30,SE,143,0.0,1.0,94,0.00,CLR,,0.00,WeatherDisplay:10.37,2013-09-06 11:20:00,
2013-09-06 07:25:00,37.5,36.0,30.30,SE,143,0.0,2.0,94,0.00,CLR,,0.00,WeatherDisplay:10.37,2013-09-06 11:25:00,
2013-09-06 07:30:00,37.5,35.9,30.30,SE,143,0.0,0.0,94,0.00,CLR,,0.00,WeatherDisplay:10.37,2013-09-06 11:30:00,
2013-09-06 07:35:00,37.5,35.9,30.30,SE,143,0.0,1.0,94,0.00,CLR,,0.00,WeatherDisplay:10.37,2013-09-06 11:35:00,
2013-09-06 07:40:00,37.5,35.9,30.30,SE,143,0.0,0.0,94,0.00,CLR,,0.00,WeatherDisplay:10.37,2013-09-06 11:40:00,
2013-09-06 07:45:00,37.6,36.0,30.31,SE,143,0.0,0.0,94,0.00,CLR,,0.00,WeatherDisplay:10.37,2013-09-06 11:45:00,
2013-09-06 07:50:00,37.9,36.6,30.31,SE,143,0.0,0.0,95,0.00,CLR,,0.00,WeatherDisplay:10.37,2013-09-06 11:50:00,
2013-09-06 07:54:00,38.3,36.7,30.31,SE,143,0.0,0.0,94,0.00,CLR,,0.00,WeatherDisplay:10.37,2013-09-06 11:54:00,
2013-09-06 07:59:00,38.4,37.1,30.31,SE,143,0.0,0.0,95,0.00,CLR,,0.00,WeatherDisplay:10.37,2013-09-06 11:59:00,
2013-09-06 08:05:00,38.6,37.3,30.31,SE,143,0.0,1.0,95,0.00,CLR,,0.00,WeatherDisplay:10.37,2013-09-06 12:05:00,
2013-09-06 08:10:00,39.0,37.7,30.31,SE,143,0.0,0.0,95,0.00,CLR,,0.00,WeatherDisplay:10.37,2013-09-06 12:10:00,
2013-09-06 08:15:00,39.4,38.1,30.31,SE,143,0.0,0.0,95,0.00,CLR,,0.00,WeatherDisplay:10.37,2013-09-06 12:15:00,
2013-09-06 08:20:00,39.9,38.6,30.31,SE,143,0.0,1.0,95,0.00,CLR,,0.00,WeatherDisplay:10.37,2013-09-06 12:20:00,
2013-09-06 08:25:00,40.4,39.1,30.31,SE,143,0.0,1.0,95,0.00,CLR,,0.00,WeatherDisplay:10.37,2013-09-06 12:25:00,
2013-09-06 08:30:00,41.3,40.0,30.31,SE,143,0.0,0.0,95,0.00,CLR,,0.00,WeatherDisplay:10.37,2013-09-06 12:30:00,
2013-09-06 08:34:00,42.2,40.9,30.31,SE,143,0.0,2.0,95,0.00,CLR,,0.00,WeatherDisplay:10.37,2013-09-06 12:34:00,
2013-09-06 08:39:00,42.5,41.2,30.31,SE,142,1.2,1.2,95,0.00,CLR,,0.00,WeatherDisplay:10.37,2013-09-06 12:39:00,
2013-09-06 08:44:00,42.6,41.3,30.30,SE,138,2.3,2.3,95,0.00,CLR,,0.00,WeatherDisplay:10.37,2013-09-06 12:44:00,
2013-09-06 08:49:00,42.8,41.5,30.31,ENE,71,2.3,2.3,95,0.00,CLR,,0.00,WeatherDisplay:10.37,2013-09-06 12:49:00,
2013-09-06 08:54:00,42.8,41.2,30.31,ENE,71,2.3,2.3,94,0.00,CLR,,0.00,WeatherDisplay:10.37,2013-09-06 12:54:00,
2013-09-06 09:00:00,43.1,40.9,30.31,ENE,71,2.3,2.3,92,0.00,CLR,,0.00,WeatherDisplay:10.37,2013-09-06 13:00:00,
2013-09-06 09:05:00,44.1,41.6,30.31,ENE,69,2.3,2.3,91,0.00,CLR,,0.00,WeatherDisplay:10.37,2013-09-06 13:05:00,
2013-09-06 09:10:00,45.5,42.8,30.31,ENE,69,1.0,2.0,90,0.00,CLR,,0.00,WeatherDisplay:10.37,2013-09-06 13:10:00,
2013-09-06 09:15:00,47.0,43.6,30.31,ENE,65,1.0,3.0,88,0.00,CLR,,0.00,WeatherDisplay:10.37,2013-09-06 13:15:00,
2013-09-06 09:20:00,47.9,43.9,30.31,ENE,63,1.0,2.0,86,0.00,CLR,,0.00,WeatherDisplay:10.37,2013-09-06 13:20:00,
2013-09-06 09:25:00,48.5,43.9,30.31,NE,49,1.0,3.0,84,0.00,CLR,,0.00,WeatherDisplay:10.37,2013-09-06 13:25:00,
2013-09-06 09:30:00,48.6,42.7,30.31,NE,40,0.0,2.0,80,0.00,CLR,,0.00,WeatherDisplay:10.37,2013-09-06 13:30:00,
2013-09-06 09:35:00,49.3,43.1,30.31,NNE,32,1.0,3.0,79,0.00,CLR,,0.00,WeatherDisplay:10.37,2013-09-06 13:35:00,
2013-09-06 09:40:00,50.1,43.1,30.31,NNE,32,1.0,2.0,77,0.00,CLR,,0.00,WeatherDisplay:10.37,2013-09-06 13:40:00,
2013-09-06 09:44:00,51.0,43.4,30.31,NNE,21,3.0,3.0,75,0.00,CLR,,0.00,WeatherDisplay:10.37,2013-09-06 13:44:00,
2013-09-06 09:49:00,51.5,42.0,30.31,North,11,2.3,2.3,70,0.00,CLR,,0.00,WeatherDisplay:10.37,2013-09-06 13:49:00,
2013-09-06 09:55:00,52.1,41.9,30.31,North,10,2.3,2.3,68,0.00,CLR,,0.00,WeatherDisplay:10.37,2013-09-06 13:55:00,
2013-09-06 10:00:00,52.4,41.8,30.31,North,8,1.0,2.0,67,0.00,CLR,,0.00,WeatherDisplay:10.37,2013-09-06 14:00:00,
2013-09-06 10:05:00,52.9,41.1,30.31,North,359,1.0,3.0,64,0.00,CLR,,0.00,WeatherDisplay:10.37,2013-09-06 14:05:00,
2013-09-06 10:10:00,53.3,38.4,30.31,NNW,343,2.0,3.0,57,0.00,CLR,,0.00,WeatherDisplay:10.37,2013-09-06 14:10:00,
2013-09-06 10:14:00,53.6,37.4,30.31,NW,323,1.0,4.0,54,0.00,CLR,,0.00,WeatherDisplay:10.37,2013-09-06 14:14:00,
2013-09-06 10:19:00,54.1,36.9,30.31,West,276,4.6,4.6,52,0.00,CLR,,0.00,WeatherDisplay:10.37,2013-09-06 14:19:00,
2013-09-06 10:24:00,53.6,36.9,30.30,WNW,286,3.5,3.5,53,0.00,CLR,,0.00,WeatherDisplay:10.37,2013-09-06 14:24:00,
2013-09-06 10:29:00,53.4,36.7,30.30,West,267,5.8,5.8,53,0.00,CLR,,0.00,WeatherDisplay:10.37,2013-09-06 14:29:00,
2013-09-06 10:34:00,53.4,36.7,30.30,West,259,4.0,4.0,53,0.00,CLR,,0.00,WeatherDisplay:10.37,2013-09-06 14:34:00,
2013-09-06 10:39:00,54.0,38.2,30.30,North,360,2.3,2.3,55,0.00,CLR,,0.00,WeatherDisplay:10.37,2013-09-06 14:39:00,
2013-09-06 10:44:00,54.5,37.2,30.30,WSW,244,1.2,1.2,52,0.00,CLR,,0.00,WeatherDisplay:10.37,2013-09-06 14:44:00,
2013-09-06 10:50:00,55.1,36.8,30.30,NW,323,2.3,2.3,50,0.00,CLR,,0.00,WeatherDisplay:10.37,2013-09-06 14:50:00,
2013-09-06 10:55:00,55.5,37.1,30.30,North,11,4.6,4.6,50,0.00,CLR,,0.00,WeatherDisplay:10.37,2013-09-06 14:55:00,
2013-09-06 11:00:00,55.7,37.8,30.30,NNW,344,1.0,3.0,51,0.00,CLR,,0.00,WeatherDisplay:10.37,2013-09-06 15:00:00,
2013-09-06 11:05:00,56.1,36.7,30.30,NNW,327,5.0,7.0,48,0.00,CLR,,0.00,WeatherDisplay:10.37,2013-09-06 15:05:00,
2013-09-06 11:10:00,55.5,36.7,30.30,WNW,292,2.0,9.0,49,0.00,CLR,,0.00,WeatherDisplay:10.37,2013-09-06 15:10:00,
2013-09-06 11:15:00,55.8,36.9,30.30,WNW,290,2.0,6.0,49,0.00,CLR,,0.00,WeatherDisplay:10.37,2013-09-06 15:15:00,
2013-09-06 11:20:00,55.9,37.0,30.30,WNW,287,2.0,6.0,49,0.00,CLR,,0.00,WeatherDisplay:10.37,2013-09-06 15:20:00,
2013-09-06 11:25:00,55.7,37.3,30.30,West,277,1.0,5.0,50,0.00,CLR,,0.00,WeatherDisplay:10.37,2013-09-06 15:25:00,
2013-09-06 11:30:00,56.1,36.6,30.30,WSW,245,0.0,4.0,48,0.00,CLR,,0.00,WeatherDisplay:10.37,2013-09-06 15:30:00,
2013-09-06 11:34:00,56.9,37.9,30.30,WNW,296,3.5,3.5,49,0.00,CLR,,0.00,WeatherDisplay:10.37,2013-09-06 15:34:00,
2013-09-06 11:39:00,57.4,35.6,30.30,WNW,294,3.5,3.5,44,0.00,CLR,,0.00,WeatherDisplay:10.37,2013-09-06 15:39:00,
2013-09-06 11:45:00,56.6,36.1,30.29,WNW,300,2.0,5.0,46,0.00,CLR,,0.00,WeatherDisplay:10.37,2013-09-06 15:45:00,
2013-09-06 11:50:00,57.2,37.7,30.29,WNW,293,6.0,6.0,48,0.00,CLR,,0.00,WeatherDisplay:10.37,2013-09-06 15:50:00,
2013-09-06 11:55:00,57.6,35.8,30.29,NNW,333,3.0,6.0,44,0.00,CLR,,0.00,WeatherDisplay:10.37,2013-09-06 15:55:00,
2013-09-06 12:00:00,58.0,36.2,30.29,NNW,341,2.0,9.0,44,0.00,CLR,,0.00,WeatherDisplay:10.37,2013-09-06 16:00:00,
2013-09-06 12:05:00,57.5,35.8,30.29,WNW,288,3.0,12.0,44,0.00,CLR,,0.00,WeatherDisplay:10.37,2013-09-06 16:05:00,
2013-09-06 12:10:00,57.5,35.7,30.29,WNW,289,2.0,12.0,44,0.00,CLR,,0.00,WeatherDisplay:10.37,2013-09-06 16:10:00,
2013-09-06 12:15:00,57.8,35.5,30.28,WNW,287,6.0,10.0,43,0.00,CLR,,0.00,WeatherDisplay:10.37,2013-09-06 16:15:00,
2013-09-06 12:19:00,57.8,36.6,30.28,WNW,294,1.0,5.0,45,0.00,CLR,,0.00,WeatherDisplay:10.37,2013-09-06 16:19:00,
2013-09-06 12:24:00,58.3,36.5,30.28,NNW,332,4.6,4.6,44,0.00,CLR,,0.00,WeatherDisplay:10.37,2013-09-06 16:24:00,
2013-09-06 12:29:00,58.6,35.0,30.28,West,269,4.6,4.6,41,0.00,CLR,,0.00,WeatherDisplay:10.37,2013-09-06 16:29:00,
2013-09-06 12:34:00,59.0,35.3,30.28,West,272,4.6,4.6,41,0.00,CLR,,0.00,WeatherDisplay:10.37,2013-09-06 16:34:00,
2013-09-06 12:40:00,59.0,36.5,30.27,West,266,3.0,3.0,43,0.00,CLR,,0.00,WeatherDisplay:10.37,2013-09-06 16:40:00,
2013-09-06 12:45:00,58.8,35.7,30.27,West,268,0.0,6.0,42,0.00,CLR,,0.00,WeatherDisplay:10.37,2013-09-06 16:45:00,
2013-09-06 12:50:00,59.6,37.1,30.27,West,269,6.0,12.0,43,0.00,CLR,,0.00,WeatherDisplay:10.37,2013-09-06 16:50:00,
2013-09-06 12:55:00,59.0,35.9,30.27,WNW,299,3.0,7.0,42,0.00,CLR,,0.00,WeatherDisplay:10.37,2013-09-06 16:55:00,
2013-09-06 12:59:00,59.0,35.9,30.27,WNW,297,3.0,6.0,42,0.00,CLR,,0.00,WeatherDisplay:10.37,2013-09-06 16:59:00,
2013-09-06 13:05:00,59.0,36.5,30.27,West,280,3.0,6.0,43,0.00,CLR,,0.00,WeatherDisplay:10.37,2013-09-06 17:05:00,
2013-09-06 13:10:00,59.0,36.5,30.27,West,268,6.0,10.0,43,0.00,CLR,,0.00,WeatherDisplay:10.37,2013-09-06 17:10:00,
2013-09-06 13:15:00,59.3,36.7,30.27,WSW,253,1.0,7.0,43,0.00,CLR,,0.00,WeatherDisplay:10.37,2013-09-06 17:15:00,
2013-09-06 13:20:00,60.3,37.7,30.27,SW,236,1.0,5.0,43,0.00,CLR,,0.00,WeatherDisplay:10.37,2013-09-06 17:20:00,
2013-09-06 13:24:00,60.3,36.5,30.27,WSW,257,7.0,7.0,41,0.00,CLR,,0.00,WeatherDisplay:10.37,2013-09-06 17:24:00,
2013-09-06 13:29:00,59.7,37.2,30.27,WSW,253,10.4,10.4,43,0.00,CLR,,0.00,WeatherDisplay:10.37,2013-09-06 17:29:00,
2013-09-06 13:35:00,60.0,38.0,30.27,West,281,4.0,4.0,44,0.00,CLR,,0.00,WeatherDisplay:10.37,2013-09-06 17:35:00,
2013-09-06 13:40:00,60.4,37.7,30.26,WNW,294,5.0,7.0,43,0.00,CLR,,0.00,WeatherDisplay:10.37,2013-09-06 17:40:00,
2013-09-06 13:45:00,60.3,35.8,30.26,NW,309,1.0,7.0,40,0.00,CLR,,0.00,WeatherDisplay:10.37,2013-09-06 17:45:00,
2013-09-06 13:50:00,60.0,37.4,30.27,WNW,295,3.0,12.0,43,0.00,CLR,,0.00,WeatherDisplay:10.37,2013-09-06 17:50:00,
2013-09-06 13:55:00,59.7,36.5,30.26,WNW,284,1.0,12.0,42,0.00,CLR,,0.00,WeatherDisplay:10.37,2013-09-06 17:55:00,
2013-09-06 14:00:00,60.0,37.4,30.26,WNW,299,3.0,6.0,43,0.00,CLR,,0.00,WeatherDisplay:10.37,2013-09-06 18:00:00,
2013-09-06 14:05:00,59.9,36.1,30.25,NW,310,3.0,7.0,41,0.00,CLR,,0.00,WeatherDisplay:10.37,2013-09-06 18:05:00,
2013-09-06 14:10:00,60.2,37.0,30.25,NW,318,2.0,9.0,42,0.00,CLR,,0.00,WeatherDisplay:10.37,2013-09-06 18:10:00,
2013-09-06 14:14:00,60.1,36.3,30.25,WNW,282,6.0,12.0,41,0.00,CLR,,0.00,WeatherDisplay:10.37,2013-09-06 18:14:00,
2013-09-06 14:19:00,60.0,36.8,30.25,West,262,4.0,4.0,42,0.00,CLR,,0.00,WeatherDisplay:10.37,2013-09-06 18:19:00,
2013-09-06 14:24:00,60.0,36.2,30.25,SE,128,3.5,3.5,41,0.00,CLR,,0.00,WeatherDisplay:10.37,2013-09-06 18:24:00,
2013-09-06 14:30:00,60.4,36.6,30.24,WNW,294,5.8,5.8,41,0.00,CLR,,0.00,WeatherDisplay:10.37,2013-09-06 18:30:00,
2013-09-06 14:35:00,60.7,36.8,30.24,West,281,5.0,12.0,41,0.00,CLR,,0.00,WeatherDisplay:10.37,2013-09-06 18:35:00,
2013-09-06 14:40:00,60.9,37.6,30.24,WNW,284,2.0,7.0,42,0.00,CLR,,0.00,WeatherDisplay:10.37,2013-09-06 18:40:00,
2013-09-06 14:45:00,61.2,36.7,30.24,NW,311,2.0,7.0,40,0.00,CLR,,0.00,WeatherDisplay:10.37,2013-09-06 18:45:00,
2013-09-06 14:50:00,61.3,38.0,30.24,WNW,301,2.0,7.0,42,0.00,CLR,,0.00,WeatherDisplay:10.37,2013-09-06 18:50:00,
2013-09-06 14:55:00,61.6,37.7,30.24,WNW,297,1.0,5.0,41,0.00,CLR,,0.00,WeatherDisplay:10.37,2013-09-06 18:55:00,
2013-09-06 15:00:00,61.5,37.6,30.23,WNW,289,2.0,6.0,41,0.00,CLR,,0.00,WeatherDisplay:10.37,2013-09-06 19:00:00,
2013-09-06 15:05:00,61.5,37.6,30.23,West,261,1.0,9.0,41,0.00,CLR,,0.00,WeatherDisplay:10.37,2013-09-06 19:05:00,
2013-09-06 15:10:00,61.4,38.7,30.23,WSW,252,2.0,9.0,43,0.00,CLR,,0.00,WeatherDisplay:10.37,2013-09-06 19:10:00,
2013-09-06 15:14:00,62.0,39.2,30.23,WNW,299,2.3,2.3,43,0.00,CLR,,0.00,WeatherDisplay:10.37,2013-09-06 19:14:00,
2013-09-06 15:19:00,62.3,37.7,30.23,West,264,4.0,4.0,40,0.00,CLR,,0.00,WeatherDisplay:10.37,2013-09-06 19:19:00,
2013-09-06 15:25:00,62.2,38.8,30.23,NW,316,9.2,9.2,42,0.00,CLR,,0.00,WeatherDisplay:10.37,2013-09-06 19:25:00,
2013-09-06 15:30:00,62.6,40.4,30.22,South,182,2.3,2.3,44,0.00,CLR,,0.00,WeatherDisplay:10.37,2013-09-06 19:30:00,
2013-09-06 15:35:00,63.0,40.1,30.22,NW,312,5.0,6.0,43,0.00,CLR,,0.00,WeatherDisplay:10.37,2013-09-06 19:35:00,
2013-09-06 15:40:00,63.3,41.0,30.22,NNW,333,2.0,10.0,44,0.00,CLR,,0.00,WeatherDisplay:10.37,2013-09-06 19:40:00,
2013-09-06 15:44:00,62.8,39.4,30.22,West,279,0.0,6.0,42,0.00,CLR,,0.00,WeatherDisplay:10.37,2013-09-06 19:44:00,
2013-09-06 15:50:00,63.0,39.5,30.22,West,274,3.0,7.0,42,0.00,CLR,,0.00,WeatherDisplay:10.37,2013-09-06 19:50:00,
2013-09-06 15:55:00,63.3,41.0,30.22,WNW,287,0.0,6.0,44,0.00,CLR,,0.00,WeatherDisplay:10.37,2013-09-06 19:55:00,
2013-09-06 16:00:00,63.6,40.0,30.21,WNW,284,3.0,10.0,42,0.00,CLR,,0.00,WeatherDisplay:10.37,2013-09-06 20:00:00,
2013-09-06 16:04:00,63.1,39.0,30.21,West,271,3.0,8.0,41,0.00,CLR,,0.00,WeatherDisplay:10.37,2013-09-06 20:04:00,
2013-09-06 16:09:00,63.1,39.0,30.21,West,267,3.5,3.5,41,0.00,CLR,,0.00,WeatherDisplay:10.37,2013-09-06 20:09:00,
2013-09-06 16:14:00,63.2,40.3,30.21,NW,325,5.8,5.8,43,0.00,CLR,,0.00,WeatherDisplay:10.37,2013-09-06 20:14:00,
2013-09-06 16:20:00,63.2,40.3,30.21,West,269,6.0,6.0,43,0.00,CLR,,0.00,WeatherDisplay:10.37,2013-09-06 20:20:00,
2013-09-06 16:25:00,63.0,40.8,30.20,West,274,3.0,9.0,44,0.00,CLR,,0.00,WeatherDisplay:10.37,2013-09-06 20:25:00,
2013-09-06 16:30:00,63.4,41.1,30.20,West,271,2.0,8.0,44,0.00,CLR,,0.00,WeatherDisplay:10.37,2013-09-06 20:30:00,
2013-09-06 16:35:00,63.6,41.2,30.20,WNW,290,3.0,10.0,44,0.00,CLR,,0.00,WeatherDisplay:10.37,2013-09-06 20:35:00,
2013-09-06 16:40:00,63.7,41.4,30.20,WNW,292,1.0,5.0,44,0.00,CLR,,0.00,WeatherDisplay:10.37,2013-09-06 20:40:00,
2013-09-06 16:44:00,64.0,42.2,30.20,West,264,1.0,5.0,45,0.00,CLR,,0.00,WeatherDisplay:10.37,2013-09-06 20:44:00,
2013-09-06 16:50:00,64.0,41.7,30.20,WSW,238,3.0,13.0,44,0.00,CLR,,0.00,WeatherDisplay:10.37,2013-09-06 20:50:00,
2013-09-06 16:54:00,63.8,42.1,30.20,West,260,2.0,7.0,45,0.00,CLR,,0.00,WeatherDisplay:10.37,2013-09-06 20:54:00,
2013-09-06 16:59:00,64.1,42.3,30.19,West,268,3.0,3.7,45,0.00,CLR,,0.00,WeatherDisplay:10.37,2013-09-06 20:59:00,
2013-09-06 17:04:00,64.5,42.7,30.19,South,171,5.8,5.8,45,0.00,CLR,,0.00,WeatherDisplay:10.37,2013-09-06 21:04:00,
2013-09-06 17:09:00,64.3,42.5,30.19,SSW,209,11.5,11.5,45,0.00,CLR,,0.00,WeatherDisplay:10.37,2013-09-06 21:09:00,
2013-09-06 17:15:00,63.9,42.7,30.19,WNW,283,6.9,6.9,46,0.00,CLR,,0.00,WeatherDisplay:10.37,2013-09-06 21:15:00,
2013-09-06 17:20:00,63.6,44.1,30.19,SW,217,10.4,10.4,49,0.00,CLR,,0.00,WeatherDisplay:10.37,2013-09-06 21:20:00,
2013-09-06 17:25:00,63.8,44.3,30.18,WSW,248,2.0,7.0,49,0.00,CLR,,0.00,WeatherDisplay:10.37,2013-09-06 21:25:00,
2013-09-06 17:29:00,64.3,44.7,30.18,WSW,253,3.0,7.0,49,0.00,CLR,,0.00,WeatherDisplay:10.37,2013-09-06 21:29:00,
2013-09-06 17:35:00,64.2,44.6,30.18,WNW,289,2.0,6.0,49,0.00,CLR,,0.00,WeatherDisplay:10.37,2013-09-06 21:35:00,
2013-09-06 17:40:00,64.4,44.8,30.18,West,267,3.0,6.0,49,0.00,CLR,,0.00,WeatherDisplay:10.37,2013-09-06 21:40:00,
2013-09-06 17:45:00,64.2,45.2,30.18,West,265,2.0,6.0,50,0.00,CLR,,0.00,WeatherDisplay:10.37,2013-09-06 21:45:00,
2013-09-06 17:50:00,63.9,44.8,30.18,West,276,3.0,9.0,50,0.00,CLR,,0.00,WeatherDisplay:10.37,2013-09-06 21:50:00,
2013-09-06 17:54:00,62.8,44.9,30.19,West,263,2.0,9.0,52,0.00,CLR,,0.00,WeatherDisplay:10.37,2013-09-06 21:54:00,
2013-09-06 17:59:00,62.3,44.9,30.18,WSW,258,4.0,4.0,53,0.00,CLR,,0.00,WeatherDisplay:10.37,2013-09-06 21:59:00,
2013-09-06 18:04:00,61.8,45.0,30.18,WSW,256,5.8,5.8,54,0.00,CLR,,0.00,WeatherDisplay:10.37,2013-09-06 22:04:00,
2013-09-06 18:09:00,62.2,45.4,30.18,West,262,0.0,1.0,54,0.00,CLR,,0.00,WeatherDisplay:10.37,2013-09-06 22:09:00,
2013-09-06 18:15:00,62.6,45.2,30.18,West,281,2.0,6.0,53,0.00,CLR,,0.00,WeatherDisplay:10.37,2013-09-06 22:15:00,
2013-09-06 18:20:00,62.1,45.7,30.18,West,265,1.0,2.0,55,0.00,CLR,,0.00,WeatherDisplay:10.37,2013-09-06 22:20:00,
2013-09-06 18:25:00,61.7,44.9,30.18,WSW,258,0.0,5.0,54,0.00,CLR,,0.00,WeatherDisplay:10.37,2013-09-06 22:25:00,
2013-09-06 18:30:00,61.2,45.3,30.18,West,272,2.0,7.0,56,0.00,CLR,,0.00,WeatherDisplay:10.37,2013-09-06 22:30:00,
2013-09-06 18:34:00,60.8,45.0,30.18,West,270,0.0,3.0,56,0.00,CLR,,0.00,WeatherDisplay:10.37,2013-09-06 22:34:00,
2013-09-06 18:40:00,60.8,46.4,30.18,WNW,282,0.0,1.0,59,0.00,CLR,,0.00,WeatherDisplay:10.37,2013-09-06 22:40:00,
2013-09-06 18:45:00,60.8,46.8,30.18,WNW,289,0.0,1.0,60,0.00,CLR,,0.00,WeatherDisplay:10.37,2013-09-06 22:45:00,
2013-09-06 18:50:00,60.4,45.5,30.18,WNW,288,0.0,1.0,58,0.00,CLR,,0.00,WeatherDisplay:10.37,2013-09-06 22:50:00,
2013-09-06 18:54:00,59.8,45.4,30.18,WNW,287,1.0,1.0,59,0.00,CLR,,0.00,WeatherDisplay:10.37,2013-09-06 22:54:00,
2013-09-06 18:59:00,59.0,45.1,30.18,WNW,287,2.3,2.3,60,0.00,CLR,,0.00,WeatherDisplay:10.37,2013-09-06 22:59:00,
2013-09-06 19:05:00,59.0,46.0,30.18,WNW,287,0.0,0.0,62,0.00,CLR,,0.00,WeatherDisplay:10.37,2013-09-06 23:05:00,
2013-09-06 19:09:00,58.7,46.2,30.17,WNW,287,0.0,1.0,63,0.00,CLR,,0.00,WeatherDisplay:10.37,2013-09-06 23:09:00,
2013-09-06 19:14:00,58.5,46.4,30.17,WNW,287,0.0,1.0,64,0.00,CLR,,0.00,WeatherDisplay:10.37,2013-09-06 23:14:00,
2013-09-06 19:19:00,58.1,46.0,30.17,West,268,0.0,2.0,64,0.00,CLR,,0.00,WeatherDisplay:10.37,2013-09-06 23:19:00,
2013-09-06 19:25:00,57.9,47.0,30.17,WSW,242,0.0,1.0,67,0.00,CLR,,0.00,WeatherDisplay:10.37,2013-09-06 23:25:00,
2013-09-06 19:30:00,57.6,47.1,30.17,WSW,240,0.0,0.0,68,0.00,CLR,,0.00,WeatherDisplay:10.37,2013-09-06 23:30:00,
2013-09-06 19:35:00,57.3,45.6,30.18,WSW,240,0.0,0.0,65,0.00,CLR,,0.00,WeatherDisplay:10.37,2013-09-06 23:35:00,
2013-09-06 19:40:00,57.3,45.6,30.17,SW,223,1.2,0.0,65,0.00,CLR,,0.00,WeatherDisplay:10.37,2013-09-06 23:40:00,
2013-09-06 19:45:00,57.3,46.0,30.18,SW,223,0.0,0.0,66,0.00,CLR,,0.00,WeatherDisplay:10.37,2013-09-06 23:45:00,
2013-09-06 19:50:00,56.9,46.1,30.18,West,259,3.5,0.0,67,0.00,CLR,,0.00,WeatherDisplay:10.37,2013-09-06 23:50:00,
2013-09-06 19:55:00,56.7,47.0,30.18,West,259,1.2,1.2,70,0.00,CLR,,0.00,WeatherDisplay:10.37,2013-09-06 23:55:00,
2013-09-06 20:00:00,56.4,48.2,30.18,WSW,244,1.2,1.2,74,0.00,CLR,,0.00,WeatherDisplay:10.37,2013-09-07 00:00:00,
2013-09-06 20:05:00,55.8,48.0,30.17,SE,130,1.2,1.2,75,0.00,CLR,,0.00,WeatherDisplay:10.37,2013-09-07 00:05:00,
2013-09-06 20:10:00,55.2,48.1,30.18,SE,129,1.2,1.2,77,0.00,CLR,,0.00,WeatherDisplay:10.37,2013-09-07 00:10:00,
2013-09-06 20:15:00,54.8,47.7,30.18,SSE,157,3.5,3.5,77,0.00,CLR,,0.00,WeatherDisplay:10.37,2013-09-07 00:15:00,
2013-09-06 20:20:00,54.7,48.0,30.18,SSE,157,1.0,0.0,78,0.00,CLR,,0.00,WeatherDisplay:10.37,2013-09-07 00:20:00,
2013-09-06 20:25:00,54.5,48.1,30.18,SSE,157,1.2,1.2,79,0.00,CLR,,0.00,WeatherDisplay:10.37,2013-09-07 00:25:00,
2013-09-06 20:30:00,54.3,47.9,30.18,SE,146,1.2,1.2,79,0.00,CLR,,0.00,WeatherDisplay:10.37,2013-09-07 00:30:00,
2013-09-06 20:35:00,54.3,47.9,30.18,SSE,153,3.5,3.5,79,0.00,CLR,,0.00,WeatherDisplay:10.37,2013-09-07 00:35:00,
2013-09-06 20:40:00,54.5,47.8,30.18,SE,141,2.3,2.3,78,0.00,CLR,,0.00,WeatherDisplay:10.37,2013-09-07 00:40:00,
2013-09-06 20:45:00,54.6,47.9,30.18,SE,129,2.3,2.3,78,0.00,CLR,,0.00,WeatherDisplay:10.37,2013-09-07 00:45:00,
2013-09-06 20:50:00,54.5,47.4,30.17,ESE,121,1.2,1.2,77,0.00,CLR,,0.00,WeatherDisplay:10.37,2013-09-07 00:50:00,
2013-09-06 20:55:00,54.4,47.3,30.18,SE,143,1.2,1.2,77,0.00,CLR,,0.00,WeatherDisplay:10.37,2013-09-07 00:55:00,
2013-09-06 21:00:00,54.2,47.1,30.18,SE,143,0.0,0.0,77,0.00,CLR,,0.00,WeatherDisplay:10.37,2013-09-07 01:00:00,
2013-09-06 21:05:00,53.9,46.9,30.17,SE,143,0.0,0.0,77,0.00,CLR,,0.00,WeatherDisplay:10.37,2013-09-07 01:05:00,
2013-09-06 21:10:00,53.6,46.6,30.18,SE,143,0.0,0.0,77,0.00,CLR,,0.00,WeatherDisplay:10.37,2013-09-07 01:10:00,
2013-09-06 21:15:00,53.4,46.7,30.18,SE,143,1.2,1.2,78,0.00,CLR,,0.00,WeatherDisplay:10.37,2013-09-07 01:15:00,
2013-09-06 21:20:00,53.2,46.5,30.17,SE,142,1.2,0.0,78,0.00,CLR,,0.00,WeatherDisplay:10.37,2013-09-07 01:20:00,
2013-09-06 21:25:00,53.4,47.4,30.17,SE,142,1.2,1.2,80,0.00,CLR,,0.00,WeatherDisplay:10.37,2013-09-07 01:25:00,
2013-09-06 21:30:00,53.2,47.2,30.17,SSE,159,2.3,2.3,80,0.00,CLR,,0.00,WeatherDisplay:10.37,2013-09-07 01:30:00,
2013-09-06 21:35:00,53.1,47.1,30.17,ESE,105,1.2,1.2,80,0.00,CLR,,0.00,WeatherDisplay:10.37,2013-09-07 01:35:00,
2013-09-06 21:40:00,53.0,47.7,30.17,ESE,106,1.2,1.2,82,0.00,CLR,,0.00,WeatherDisplay:10.37,2013-09-07 01:40:00,
2013-09-06 21:45:00,52.8,47.8,30.17,ESE,117,0.0,0.0,83,0.00,CLR,,0.00,WeatherDisplay:10.37,2013-09-07 01:45:00,
2013-09-06 21:50:00,52.4,47.7,30.17,ESE,117,0.0,0.0,84,0.00,CLR,,0.00,WeatherDisplay:10.37,2013-09-07 01:50:00,
2013-09-06 21:55:00,52.1,47.4,30.17,ESE,117,0.0,0.0,84,0.00,CLR,,0.00,WeatherDisplay:10.37,2013-09-07 01:55:00,
2013-09-06 22:00:00,51.9,47.2,30.17,ESE,117,0.0,0.0,84,0.00,CLR,,0.00,WeatherDisplay:10.37,2013-09-07 02:00:00,
2013-09-06 22:05:00,51.7,47.0,30.17,ESE,117,0.0,0.0,84,0.00,CLR,,0.00,WeatherDisplay:10.37,2013-09-07 02:05:00,
2013-09-06 22:10:00,51.5,46.8,30.17,ESE,117,0.0,0.0,84,0.00,CLR,,0.00,WeatherDisplay:10.37,2013-09-07 02:10:00,
2013-09-06 22:15:00,51.4,47.0,30.17,ESE,117,0.0,0.0,85,0.00,CLR,,0.00,WeatherDisplay:10.37,2013-09-07 02:15:00,
2013-09-06 22:20:00,51.2,47.2,30.17,ESE,117,1.2,1.2,86,0.00,CLR,,0.00,WeatherDisplay:10.37,2013-09-07 02:20:00,
2013-09-06 22:25:00,51.1,47.1,30.17,ESE,117,1.2,1.2,86,0.00,CLR,,0.00,WeatherDisplay:10.37,2013-09-07 02:25:00,
2013-09-06 22:30:00,51.0,47.0,30.17,SE,142,1.2,1.2,86,0.00,CLR,,0.00,WeatherDisplay:10.37,2013-09-07 02:30:00,
2013-09-06 22:35:00,50.9,47.2,30.17,SSE,150,2.3,2.3,87,0.00,CLR,,0.00,WeatherDisplay:10.37,2013-09-07 02:35:00,
2013-09-06 22:40:00,50.7,47.0,30.17,SE,142,1.2,1.2,87,0.00,CLR,,0.00,WeatherDisplay:10.37,2013-09-07 02:40:00,
2013-09-06 22:45:00,50.5,46.8,30.17,SE,142,1.2,1.2,87,0.00,CLR,,0.00,WeatherDisplay:10.37,2013-09-07 02:45:00,
2013-09-06 22:50:00,50.3,46.9,30.17,SE,141,1.2,1.2,88,0.00,CLR,,0.00,WeatherDisplay:10.37,2013-09-07 02:50:00,
2013-09-06 22:55:00,50.1,46.7,30.16,SE,142,1.2,1.2,88,0.00,CLR,,0.00,WeatherDisplay:10.37,2013-09-07 02:55:00,
2013-09-06 23:00:00,49.9,46.5,30.16,SE,142,2.0,2.0,88,0.00,CLR,,0.00,WeatherDisplay:10.37,2013-09-07 03:00:00,
2013-09-06 23:05:00,49.7,46.6,30.15,SE,142,0.0,0.0,89,0.00,CLR,,0.00,WeatherDisplay:10.37,2013-09-07 03:05:00,
2013-09-06 23:10:00,49.6,46.5,30.15,SE,141,1.2,1.2,89,0.00,CLR,,0.00,WeatherDisplay:10.37,2013-09-07 03:10:00,
2013-09-06 23:15:00,49.5,46.4,30.15,SE,142,0.0,0.0,89,0.00,CLR,,0.00,WeatherDisplay:10.37,2013-09-07 03:15:00,
2013-09-06 23:20:00,49.3,46.2,30.16,SE,142,0.0,0.0,89,0.00,CLR,,0.00,WeatherDisplay:10.37,2013-09-07 03:20:00,
2013-09-06 23:25:00,49.2,46.1,30.16,SE,142,1.2,1.2,89,0.00,CLR,,0.00,WeatherDisplay:10.37,2013-09-07 03:25:00,
2013-09-06 23:30:00,49.1,46.0,30.15,SE,142,0.0,0.0,89,0.00,CLR,,0.00,WeatherDisplay:10.37,2013-09-07 03:30:00,
2013-09-06 23:35:00,49.0,46.2,30.15,SE,142,1.2,0.0,90,0.00,CLR,,0.00,WeatherDisplay:10.37,2013-09-07 03:35:00,
2013-09-06 23:40:00,48.7,45.9,30.15,SE,142,1.2,0.0,90,0.00,CLR,,0.00,WeatherDisplay:10.37,2013-09-07 03:40:00,
2013-09-06 23:45:00,48.6,45.8,30.15,SE,142,1.2,1.2,90,0.00,CLR,,0.00,WeatherDisplay:10.37,2013-09-07 03:45:00,
2013-09-06 23:50:00,48.5,45.7,30.14,SE,142,1.2,0.0,90,0.00,CLR,,0.00,WeatherDisplay:10.37,2013-09-07 03:50:00,
2013-09-06 23:55:00,48.2,45.4,30.14,SE,142,0.0,0.0,90,0.00,CLR,,0.00,WeatherDisplay:10.37,2013-09-07 03:55:00,